createdAt,value
2023-04-01T00:01:56.333Z,17.2
2023-04-01T00:04:26.955Z,17.3
2023-04-01T00:06:57.338Z,17.4
2023-04-01T00:09:29.914Z,17.4
2023-04-01T00:11:59.039Z,17.4
2023-04-01T00:14:29.599Z,17.4
2023-04-01T00:17:00.155Z,17.4
2023-04-01T00:19:30.523Z,17.2
2023-04-01T00:22:00.935Z,17.2
2023-04-01T00:24:31.199Z,17.1
2023-04-01T00:27:01.512Z,17.1
2023-04-01T00:29:31.546Z,17
2023-04-01T00:32:02.356Z,17
2023-04-01T00:34:33.085Z,17
2023-04-01T00:37:03.413Z,16.9
2023-04-01T00:39:34.334Z,16.9
2023-04-01T00:42:05.256Z,16.8
2023-04-01T00:44:36.523Z,16.9
2023-04-01T00:47:07.618Z,16.9
2023-04-01T00:49:38.430Z,16.9
2023-04-01T00:52:09.909Z,16.9
2023-04-01T00:54:40.546Z,16.8
2023-04-01T00:57:11.013Z,16.9
2023-04-01T00:59:41.620Z,16.8
2023-04-01T01:02:12.285Z,16.7
2023-04-01T01:04:42.776Z,16.7
2023-04-01T01:07:13.717Z,16.8
2023-04-01T01:09:44.898Z,16.7
2023-04-01T01:12:15.645Z,16.8
2023-04-01T01:14:46.419Z,16.8
2023-04-01T01:17:17.260Z,16.8
2023-04-01T01:19:48.201Z,16.8
2023-04-01T01:22:18.854Z,16.7
2023-04-01T01:24:49.784Z,16.6
2023-04-01T01:27:20.491Z,16.5
2023-04-01T01:29:50.870Z,16.6
2023-04-01T01:32:21.448Z,16.6
2023-04-01T01:34:52.005Z,16.6
2023-04-01T01:37:23.153Z,16.5
2023-04-01T01:39:54.198Z,16.5
2023-04-01T01:42:25.248Z,16.4
2023-04-01T01:44:56.260Z,16.5
2023-04-01T01:47:26.950Z,16.5
2023-04-01T01:49:57.531Z,16.5
2023-04-01T01:52:27.866Z,16.5
2023-04-01T01:54:58.476Z,16.4
2023-04-01T01:57:29.313Z,16.5
2023-04-01T01:59:59.857Z,16.5
2023-04-01T02:02:30.623Z,16.4
2023-04-01T02:05:01.149Z,16.4
2023-04-01T02:07:32.315Z,16.3
2023-04-01T02:10:02.709Z,16.3
2023-04-01T02:12:33.310Z,16.4
2023-04-01T02:15:03.989Z,16.4
2023-04-01T02:17:34.847Z,16.3
2023-04-01T02:20:05.696Z,16.2
2023-04-01T02:22:36.910Z,16.3
2023-04-01T02:25:07.057Z,16.4
2023-04-01T02:27:38.092Z,16.3
2023-04-01T02:30:08.848Z,16.3
2023-04-01T02:32:39.617Z,16.2
2023-04-01T02:35:10.297Z,16.1
2023-04-01T02:37:41.237Z,16.2
2023-04-01T02:40:11.831Z,16.1
2023-04-01T02:42:42.745Z,16.1
2023-04-01T02:45:14.016Z,15.9
2023-04-01T02:47:45.226Z,15.9
2023-04-01T02:50:16.272Z,15.9
2023-04-01T02:52:47.082Z,15.9
2023-04-01T02:55:18.241Z,15.9
2023-04-01T02:57:48.890Z,15.9
2023-04-01T03:00:19.801Z,15.8
2023-04-01T03:02:50.274Z,15.8
2023-04-01T03:05:21.211Z,15.7
2023-04-01T03:07:51.746Z,15.6
2023-04-01T03:10:23.082Z,15.6
2023-04-01T03:12:54.050Z,15.6
2023-04-01T03:15:24.796Z,15.5
2023-04-01T03:17:55.379Z,15.4
2023-04-01T03:20:26.239Z,15.3
2023-04-01T03:22:56.804Z,15.3
2023-04-01T03:25:28.137Z,15.2
2023-04-01T03:27:58.542Z,15.1
2023-04-01T03:30:29.783Z,15.1
2023-04-01T03:33:00.464Z,15.1
2023-04-01T03:35:31.325Z,15.1
2023-04-01T03:38:01.933Z,15.1
2023-04-01T03:40:32.569Z,15.1
2023-04-01T03:43:04.224Z,15.1
2023-04-01T03:45:35.389Z,15
2023-04-01T03:48:05.859Z,15.1
2023-04-01T03:50:36.747Z,15
2023-04-01T03:53:07.156Z,15
2023-04-01T03:55:37.825Z,15
2023-04-01T03:58:08.745Z,14.9
2023-04-01T04:00:39.822Z,15
2023-04-01T04:03:10.359Z,14.9
2023-04-01T04:05:41.062Z,15
2023-04-01T04:08:12.362Z,14.9
2023-04-01T04:10:43.262Z,14.9
2023-04-01T04:13:14.373Z,14.8
2023-04-01T04:15:45.299Z,14.9
2023-04-01T04:18:16.430Z,15
2023-04-01T04:20:46.935Z,14.9
2023-04-01T04:23:17.343Z,14.9
2023-04-01T04:25:48.173Z,14.9
2023-04-01T04:28:18.757Z,14.8
2023-04-01T04:30:49.403Z,14.9
2023-04-01T04:33:20.457Z,14.9
2023-04-01T04:35:51.103Z,14.8
2023-04-01T04:38:21.455Z,14.8
2023-04-01T04:40:51.813Z,14.8
2023-04-01T04:43:23.000Z,14.9
2023-04-01T04:45:53.402Z,14.7
2023-04-01T04:48:24.154Z,14.8
2023-04-01T04:50:55.405Z,14.8
2023-04-01T04:53:26.051Z,14.8
2023-04-01T04:55:56.491Z,14.8
2023-04-01T04:58:26.951Z,14.8
2023-04-01T05:00:57.455Z,14.9
2023-04-01T05:03:28.073Z,14.8
2023-04-01T05:05:58.657Z,14.6
2023-04-01T05:08:29.436Z,14.6
2023-04-01T05:11:00.005Z,14.5
2023-04-01T05:13:32.704Z,14.5
2023-04-01T05:16:03.113Z,14.5
2023-04-01T05:18:33.535Z,14.5
2023-04-01T05:21:04.828Z,14.6
2023-04-01T05:23:35.454Z,14.6
2023-04-01T05:26:05.876Z,14.5
2023-04-01T05:28:36.448Z,14.6
2023-04-01T05:31:07.836Z,14.5
2023-04-01T05:33:38.481Z,14.4
2023-04-01T05:36:09.517Z,14.4
2023-04-01T05:38:40.072Z,14.4
2023-04-01T05:41:10.546Z,14.4
2023-04-01T05:43:41.580Z,14.4
2023-04-01T05:46:12.132Z,14.5
2023-04-01T05:48:43.105Z,14.4
2023-04-01T05:51:13.762Z,14.3
2023-04-01T05:53:44.042Z,14.3
2023-04-01T05:56:14.833Z,14.3
2023-04-01T05:58:45.493Z,14.3
2023-04-01T06:01:16.691Z,14.3
2023-04-01T06:03:47.127Z,14.4
2023-04-01T06:06:17.928Z,14.4
2023-04-01T06:08:48.408Z,14.5
2023-04-01T06:11:19.015Z,14.5
2023-04-01T06:13:50.287Z,14.5
2023-04-01T06:16:20.889Z,14.4
2023-04-01T06:18:51.338Z,14.3
2023-04-01T06:21:21.677Z,14.4
2023-04-01T06:23:52.421Z,14.3
2023-04-01T06:26:23.104Z,14.2
2023-04-01T06:28:53.246Z,14.3
2023-04-01T06:31:24.080Z,14.2
2023-04-01T06:33:54.463Z,14.3
2023-04-01T06:36:26.924Z,14.1
2023-04-01T06:38:57.507Z,14.1
2023-04-01T06:41:28.211Z,14.1
2023-04-01T06:43:59.622Z,14.1
2023-04-01T06:46:29.604Z,14.1
2023-04-01T06:48:59.677Z,14.1
2023-04-01T06:51:30.143Z,14.1
2023-04-01T06:54:00.627Z,14
2023-04-01T06:56:30.980Z,14
2023-04-01T06:59:01.743Z,14.1
2023-04-01T07:01:32.589Z,14
2023-04-01T07:04:03.409Z,13.9
2023-04-01T07:06:33.841Z,13.9
2023-04-01T07:09:06.000Z,14
2023-04-01T07:11:34.838Z,14
2023-04-01T07:14:06.707Z,13.9
2023-04-01T07:16:36.918Z,14
2023-04-01T07:19:07.834Z,14
2023-04-01T07:21:38.500Z,13.8
2023-04-01T07:24:08.793Z,13.9
2023-04-01T07:26:39.540Z,14
2023-04-01T07:29:10.675Z,14
2023-04-01T07:31:41.296Z,14.2
2023-04-01T07:34:12.804Z,14.3
2023-04-01T07:36:43.045Z,14.3
2023-04-01T07:39:13.654Z,14.3
2023-04-01T07:41:44.025Z,14.4
2023-04-01T07:44:14.437Z,14.4
2023-04-01T07:46:45.155Z,14.5
2023-04-01T07:49:15.556Z,14.5
2023-04-01T07:51:45.848Z,14.4
2023-04-01T07:54:16.461Z,14.4
2023-04-01T07:56:47.305Z,14.3
2023-04-01T07:59:15.989Z,14.2
2023-04-01T08:01:46.222Z,14.1
2023-04-01T08:04:16.693Z,14.2
2023-04-01T08:06:47.619Z,14.3
2023-04-01T08:09:18.003Z,14.3
2023-04-01T08:11:48.605Z,14.4
2023-04-01T08:14:18.804Z,14.5
2023-04-01T08:16:49.466Z,14.6
2023-04-01T08:19:20.042Z,14.7
2023-04-01T08:21:50.016Z,14.5
2023-04-01T08:24:21.475Z,14.5
2023-04-01T08:26:50.494Z,14.4
2023-04-01T08:29:20.697Z,14.4
2023-04-01T08:31:51.158Z,14.4
2023-04-01T08:34:21.240Z,14.3
2023-04-01T08:36:51.734Z,14.4
2023-04-01T08:39:22.202Z,14.5
2023-04-01T08:41:52.217Z,14.5
2023-04-01T08:44:22.812Z,14.5
2023-04-01T08:46:53.243Z,14.6
2023-04-01T08:49:23.552Z,14.7
2023-04-01T08:51:53.769Z,14.7
2023-04-01T08:54:24.247Z,14.8
2023-04-01T08:56:54.627Z,14.9
2023-04-01T08:59:24.591Z,14.8
2023-04-01T09:01:54.818Z,14.9
2023-04-01T09:04:25.070Z,15.1
2023-04-01T09:06:55.480Z,15
2023-04-01T09:09:25.706Z,15.1
2023-04-01T09:11:55.638Z,15.1
2023-04-01T09:14:25.708Z,15.1
2023-04-01T09:16:55.592Z,15.2
2023-04-01T09:19:29.143Z,15.2
2023-04-01T09:21:59.398Z,15.2
2023-04-01T09:24:29.642Z,15.2
2023-04-01T09:26:59.805Z,15.2
2023-04-01T09:29:29.669Z,15.2
2023-04-01T09:31:59.849Z,15.2
2023-04-01T09:34:30.750Z,15.3
2023-04-01T09:37:00.966Z,15.2
2023-04-01T09:39:30.830Z,15.2
2023-04-01T09:42:01.860Z,15.2
2023-04-01T09:44:31.994Z,15.3
2023-04-01T09:47:04.573Z,15.2
2023-04-01T09:49:34.728Z,15.2
2023-04-01T09:52:05.503Z,15.2
2023-04-01T09:54:38.252Z,15.2
2023-04-01T09:57:08.442Z,15.2
2023-04-01T09:59:38.587Z,15
2023-04-01T10:02:08.638Z,14.7
2023-04-01T10:04:43.189Z,14.6
2023-04-01T10:07:13.138Z,14.5
2023-04-01T10:09:43.237Z,14.3
2023-04-01T10:12:13.499Z,14.1
2023-04-01T10:14:43.370Z,13.9
2023-04-01T10:17:13.399Z,13.9
2023-04-01T10:19:46.956Z,13.6
2023-04-01T10:22:17.029Z,13.6
2023-04-01T10:24:47.040Z,13.5
2023-04-01T10:27:17.144Z,13.4
2023-04-01T10:29:47.190Z,13.4
2023-04-01T10:32:17.309Z,13.5
2023-04-01T10:34:47.208Z,13.2
2023-04-01T10:37:17.480Z,13.2
2023-04-01T10:39:48.630Z,13.3
2023-04-01T10:42:22.760Z,13.2
2023-04-01T10:44:53.036Z,13.2
2023-04-01T10:47:23.150Z,13.1
2023-04-01T10:49:53.300Z,13.1
2023-04-01T10:52:23.524Z,13
2023-04-01T10:54:53.720Z,13
2023-04-01T10:57:23.927Z,13.1
2023-04-01T10:59:54.019Z,13.1
2023-04-01T11:02:25.256Z,13.2
2023-04-01T11:04:55.219Z,13.2
2023-04-01T11:07:25.475Z,13.2
2023-04-01T11:09:55.736Z,13.1
2023-04-01T11:12:25.822Z,13
2023-04-01T11:14:55.750Z,12.9
2023-04-01T11:17:25.843Z,13
2023-04-01T11:19:55.865Z,12.9
2023-04-01T11:22:26.336Z,12.8
2023-04-01T11:24:56.188Z,12.8
2023-04-01T11:27:26.359Z,12.8
2023-04-01T11:29:59.987Z,12.6
2023-04-01T11:32:26.090Z,12.7
2023-04-01T11:34:56.280Z,12.7
2023-04-01T11:37:26.554Z,12.6
2023-04-01T11:39:58.152Z,12.7
2023-04-01T11:42:26.945Z,12.7
2023-04-01T11:44:57.400Z,12.7
2023-04-01T11:47:27.715Z,12.7
2023-04-01T11:49:57.959Z,12.8
2023-04-01T11:52:28.069Z,12.9
2023-04-01T11:54:58.599Z,12.8
2023-04-01T11:57:29.882Z,12.8
2023-04-01T11:59:59.884Z,12.7
2023-04-01T12:02:30.167Z,12.9
2023-04-01T12:05:00.360Z,13
2023-04-01T12:07:30.347Z,13.1
2023-04-01T12:10:00.617Z,12.9
2023-04-01T12:12:30.539Z,12.9
2023-04-01T12:15:01.202Z,12.9
2023-04-01T12:17:31.308Z,12.9
2023-04-01T12:20:01.295Z,12.9
2023-04-01T12:22:33.261Z,12.8
2023-04-01T12:25:01.315Z,12.9
2023-04-01T12:27:29.753Z,12.9
2023-04-01T12:29:59.731Z,12.9
2023-04-01T12:32:29.748Z,12.9
2023-04-01T12:34:59.774Z,13
2023-04-01T12:37:30.170Z,13.1
2023-04-01T12:40:00.175Z,13.1
2023-04-01T12:42:30.290Z,13.2
2023-04-01T12:45:00.098Z,13
2023-04-01T12:47:30.440Z,13.2
2023-04-01T12:50:00.395Z,13.3
2023-04-01T12:52:30.219Z,13.2
2023-04-01T12:55:00.977Z,13.2
2023-04-01T12:57:30.324Z,13.3
2023-04-01T13:00:00.401Z,13.3
2023-04-01T13:02:30.362Z,13.3
2023-04-01T13:05:03.366Z,13.3
2023-04-01T13:07:33.415Z,13.1
2023-04-01T13:10:03.446Z,13.2
2023-04-01T13:12:33.474Z,13.2
2023-04-01T13:15:05.731Z,13.2
2023-04-01T13:17:33.812Z,13.2
2023-04-01T13:20:05.909Z,13.1
2023-04-01T13:22:34.057Z,13.2
2023-04-01T13:25:03.868Z,13.2
2023-04-01T13:27:34.428Z,13.1
2023-04-01T13:30:04.785Z,13.2
2023-04-01T13:35:05.628Z,13.2
2023-04-01T13:37:36.403Z,13.2
2023-04-01T13:40:06.622Z,13.2
2023-04-01T13:42:36.978Z,13.2
2023-04-01T13:45:07.104Z,13.3
2023-04-01T13:47:37.920Z,13.3
2023-04-01T13:50:08.275Z,13.3
2023-04-01T13:52:38.304Z,13.3
2023-04-01T13:55:08.469Z,13.2
2023-04-01T13:57:38.642Z,13.2
2023-04-01T14:00:08.945Z,13.3
2023-04-01T14:02:38.858Z,13.3
2023-04-01T14:05:08.754Z,13.4
2023-04-01T14:07:39.299Z,13.2
2023-04-01T14:10:07.935Z,13.3
2023-04-01T14:12:37.988Z,13.3
2023-04-01T14:15:07.922Z,13.3
2023-04-01T14:17:38.003Z,13.3
2023-04-01T14:20:08.101Z,13.2
2023-04-01T14:22:38.506Z,13.2
2023-04-01T14:25:08.642Z,13.2
2023-04-01T14:27:39.089Z,13.2
2023-04-01T14:30:09.676Z,13.2
2023-04-01T14:32:39.777Z,13.2
2023-04-01T14:35:10.001Z,13.3
2023-04-01T14:37:40.173Z,13.3
2023-04-01T14:40:10.417Z,13.2
2023-04-01T14:42:40.834Z,13.3
2023-04-01T14:45:10.980Z,13.2
2023-04-01T14:47:41.392Z,13.4
2023-04-01T14:50:11.849Z,13.4
2023-04-01T14:52:41.860Z,13.3
2023-04-01T14:55:11.320Z,13.4
2023-04-01T14:57:41.718Z,13.4
2023-04-01T15:00:10.134Z,13.3
2023-04-01T15:02:38.916Z,13.3
2023-04-01T15:05:08.775Z,13.4
2023-04-01T15:07:39.387Z,13.4
2023-04-01T15:10:10.136Z,13.5
2023-04-01T15:12:40.872Z,13.5
2023-04-01T15:15:11.358Z,13.6
2023-04-01T15:17:42.913Z,13.6
2023-04-01T15:20:13.075Z,13.5
2023-04-01T15:22:43.332Z,13.6
2023-04-01T15:25:13.413Z,13.6
2023-04-01T15:27:44.096Z,13.5
2023-04-01T15:30:17.500Z,13.4
2023-04-01T15:32:47.627Z,13.5
2023-04-01T15:35:17.735Z,13.5
2023-04-01T15:37:46.363Z,13.6
2023-04-01T15:40:16.976Z,13.6
2023-04-01T15:42:47.302Z,13.6
2023-04-01T15:45:17.238Z,13.6
2023-04-01T15:47:48.289Z,13.7
2023-04-01T15:50:18.770Z,13.6
2023-04-01T15:52:49.132Z,13.6
2023-04-01T15:55:19.170Z,13.6
2023-04-01T15:57:49.310Z,13.6
2023-04-01T16:00:20.383Z,13.6
2023-04-01T16:02:50.806Z,13.7
2023-04-01T16:05:20.807Z,13.7
2023-04-01T16:07:50.833Z,13.6
2023-04-01T16:10:20.882Z,13.7
2023-04-01T16:12:51.082Z,13.7
2023-04-01T16:15:21.400Z,13.7
2023-04-01T16:17:51.553Z,13.6
2023-04-01T16:20:21.569Z,13.6
2023-04-01T16:22:51.576Z,13.7
2023-04-01T16:25:21.462Z,13.7
2023-04-01T16:27:52.567Z,13.8
2023-04-01T16:30:22.069Z,13.7
2023-04-01T16:32:52.489Z,13.7
2023-04-01T16:35:22.167Z,13.6
2023-04-01T16:37:52.377Z,13.6
2023-04-01T16:40:22.153Z,13.6
2023-04-01T16:42:52.317Z,13.6
2023-04-01T16:45:24.567Z,13.7
2023-04-01T16:47:55.035Z,13.7
2023-04-01T16:50:27.194Z,13.7
2023-04-01T16:52:57.352Z,13.6
2023-04-01T16:55:27.303Z,13.6
2023-04-01T16:57:57.612Z,13.5
2023-04-01T17:00:27.600Z,13.6
2023-04-01T17:02:57.776Z,13.5
2023-04-01T17:05:28.306Z,13.6
2023-04-01T17:08:00.441Z,13.6
2023-04-01T17:10:30.201Z,13.6
2023-04-01T17:13:00.886Z,13.6
2023-04-01T17:15:31.329Z,13.5
2023-04-01T17:17:59.689Z,13.6
2023-04-01T17:20:29.974Z,13.6
2023-04-01T17:23:00.239Z,13.6
2023-04-01T17:25:29.966Z,13.6
2023-04-01T17:28:00.157Z,13.6
2023-04-01T17:30:30.403Z,13.6
2023-04-01T17:33:00.676Z,13.6
2023-04-01T17:35:29.277Z,13.6
2023-04-01T17:37:59.334Z,13.6
2023-04-01T17:40:29.356Z,13.5
2023-04-01T17:42:59.544Z,13.6
2023-04-01T17:45:29.664Z,13.5
2023-04-01T17:47:59.888Z,13.6
2023-04-01T17:50:29.820Z,13.5
2023-04-01T17:52:59.863Z,13.5
2023-04-01T17:55:30.568Z,13.5
2023-04-01T17:58:00.617Z,13.5
2023-04-01T18:00:38.625Z,13.5
2023-04-01T18:03:01.350Z,13.3
2023-04-01T18:05:30.973Z,13.4
2023-04-01T18:08:00.683Z,13.4
2023-04-01T18:10:30.654Z,13.3
2023-04-01T18:13:00.621Z,13.4
2023-04-01T18:15:30.609Z,13.3
2023-04-01T18:18:00.747Z,13.4
2023-04-01T18:20:35.983Z,13.3
2023-04-01T18:23:07.160Z,13.4
2023-04-01T18:25:38.169Z,13.3
2023-04-01T18:28:08.088Z,13.3
2023-04-01T18:30:38.468Z,13.3
2023-04-01T18:33:13.244Z,13.3
2023-04-01T18:35:43.784Z,13.3
2023-04-01T18:38:13.797Z,13.3
2023-04-01T18:40:43.803Z,13.3
2023-04-01T18:43:14.306Z,13.2
2023-04-01T18:45:44.487Z,13.1
2023-04-01T18:48:14.721Z,13.1
2023-04-01T18:50:44.838Z,13.1
2023-04-01T18:53:15.059Z,13.1
2023-04-01T18:58:15.522Z,13.1
2023-04-01T19:00:45.583Z,13.1
2023-04-01T19:03:15.713Z,13
2023-04-01T19:05:46.572Z,13.1
2023-04-01T19:08:16.633Z,13
2023-04-01T19:10:46.690Z,13
2023-04-01T19:13:17.059Z,13
2023-04-01T19:15:47.282Z,13
2023-04-01T19:18:17.263Z,12.9
2023-04-01T19:20:47.367Z,12.9
2023-04-01T19:23:15.639Z,13
2023-04-01T19:25:46.905Z,12.9
2023-04-01T19:28:18.304Z,12.9
2023-04-01T19:30:48.565Z,12.8
2023-04-01T19:33:18.319Z,12.8
2023-04-01T19:35:48.358Z,12.8
2023-04-01T19:38:20.695Z,12.7
2023-04-01T19:40:50.899Z,12.7
2023-04-01T19:43:23.422Z,12.7
2023-04-01T19:45:53.190Z,12.7
2023-04-01T19:48:22.596Z,12.7
2023-04-01T19:50:52.738Z,12.6
2023-04-01T19:53:23.618Z,12.7
2023-04-01T19:55:56.383Z,12.7
2023-04-01T19:58:27.300Z,12.7
2023-04-01T20:00:57.298Z,12.7
2023-04-01T20:03:27.801Z,12.7
2023-04-01T20:05:58.271Z,12.7
2023-04-01T20:08:28.613Z,12.7
2023-04-01T20:10:58.845Z,12.7
2023-04-01T20:13:29.184Z,12.7
2023-04-01T20:15:59.734Z,12.7
2023-04-01T20:18:29.637Z,12.7
2023-04-01T20:21:00.498Z,12.6
2023-04-01T20:23:30.360Z,12.7
2023-04-01T20:26:00.378Z,12.6
2023-04-01T20:28:30.652Z,12.6
2023-04-01T20:31:01.537Z,12.6
2023-04-01T20:33:31.967Z,12.6
2023-04-01T20:36:02.189Z,12.5
2023-04-01T20:38:32.369Z,12.6
2023-04-01T20:41:02.537Z,12.6
2023-04-01T20:43:32.878Z,12.4
2023-04-01T20:46:02.993Z,12.5
2023-04-01T20:48:33.505Z,12.4
2023-04-01T20:51:02.561Z,12.4
2023-04-01T20:53:32.599Z,12.4
2023-04-01T20:56:02.947Z,12.4
2023-04-01T20:58:33.390Z,12.3
2023-04-01T21:01:03.992Z,12.3
2023-04-01T21:03:34.281Z,12.4
2023-04-01T21:06:04.609Z,12.4
2023-04-01T21:08:34.854Z,12.3
2023-04-01T21:11:04.932Z,12.3
2023-04-01T21:13:34.809Z,12.3
2023-04-01T21:16:03.808Z,12.3
2023-04-01T21:18:34.790Z,12.3
2023-04-01T21:21:05.673Z,12.3
2023-04-01T21:23:35.893Z,12.2
2023-04-01T21:26:06.027Z,12.3
2023-04-01T21:28:36.318Z,12.2
2023-04-01T21:31:06.666Z,12.2
2023-04-01T21:33:36.593Z,12.2
2023-04-01T21:36:08.748Z,12.2
2023-04-01T21:38:43.350Z,12.2
2023-04-01T21:41:13.719Z,12.2
2023-04-01T21:43:43.623Z,12
2023-04-01T21:46:15.773Z,12
2023-04-01T21:48:46.123Z,12
2023-04-01T21:51:17.142Z,11.9
2023-04-01T21:53:47.412Z,11.9
2023-04-01T21:56:18.650Z,12
2023-04-01T21:58:49.134Z,12
2023-04-01T22:01:19.572Z,12
2023-04-01T22:03:49.693Z,12
2023-04-01T22:06:22.132Z,12
2023-04-01T22:08:52.334Z,12
2023-04-01T22:11:23.038Z,11.9
2023-04-01T22:13:53.428Z,11.8
2023-04-01T22:16:23.500Z,11.9
2023-04-01T22:18:53.508Z,11.9
2023-04-01T22:21:23.768Z,11.7
2023-04-01T22:23:54.304Z,11.7
2023-04-01T22:26:25.236Z,11.7
2023-04-01T22:28:55.734Z,11.5
2023-04-01T22:31:30.212Z,11.6
2023-04-01T22:34:00.738Z,11.6
2023-04-01T22:36:29.607Z,11.6
2023-04-01T22:39:01.917Z,11.6
2023-04-01T22:41:41.369Z,11.5
2023-04-01T22:44:11.586Z,11.5
2023-04-01T22:46:42.283Z,11.5
2023-04-01T22:49:12.624Z,11.5
2023-04-01T22:51:42.696Z,11.4
2023-04-01T22:54:13.253Z,11.4
2023-04-01T22:56:43.512Z,11.4
2023-04-01T22:59:13.683Z,11.2
2023-04-01T23:01:45.984Z,11.2
2023-04-01T23:04:13.853Z,11.2
2023-04-01T23:06:45.711Z,11.1
2023-04-01T23:09:16.982Z,11.2
2023-04-01T23:11:47.104Z,11.1
2023-04-01T23:14:18.099Z,11.2
2023-04-01T23:16:48.347Z,11.1
2023-04-01T23:19:18.848Z,11
2023-04-01T23:21:49.354Z,11
2023-04-01T23:24:19.273Z,11
2023-04-01T23:26:49.442Z,11
2023-04-01T23:29:19.719Z,10.9
2023-04-01T23:31:51.159Z,10.8
2023-04-01T23:34:21.800Z,10.8
2023-04-01T23:36:52.967Z,10.8
2023-04-01T23:39:23.140Z,10.7
2023-04-01T23:41:53.486Z,10.7
2023-04-01T23:44:23.598Z,10.6
2023-04-01T23:46:54.558Z,10.6
2023-04-01T23:49:24.898Z,10.6
2023-04-01T23:51:54.989Z,10.6
2023-04-01T23:54:25.113Z,10.6
2023-04-01T23:57:00.639Z,10.5
2023-04-01T23:59:30.782Z,10.5
